Latest Coastal Weather Observations for Cape Nelson

IDS60701

Issued at 5:51 am CST Monday 29 May 2017 (issued every 10 minutes, with the page automatically refreshed every 10 minutes)

About coastal observations | Map of coastal stations | Coastal observations for SA | Marine services | Other Formats
Station Details ID: 090184 Name: CAPE NELSON LIGHTHOUSE Lat: -38.43 Lon: 141.54 Height: 45.4 m
Data from the previous 72 hours. | See also: Recent months at Cape Nelson
Date/Time
CST
Temp
°C
Wind Pressure Rain since
9am
mm
Weather Cloud Vis
km
Sea
Height
m
Swell
Dir  Spd
kts
Gust
kts
hPa Trend Height
m
Period
s
Dir
29/05:30am 11.9 W 14 23 1016.8 - 2.6 - - - - - - -
29/05:02am 11.5 W 15 26 1016.9 - 2.6 - - - - - - -
29/05:00am 11.5 WNW 14 26 1016.8 - 2.6 - - - - - - -
29/04:30am 11.5 WNW 13 22 1016.3 - 2.6 - - - - - - -
29/04:00am 11.5 W 14 20 1016.2 - 2.6 - - - - - - -
29/03:30am 10.4 W 17 31 1016.2 - 2.6 - - - - - - -
29/03:26am 11.3 WNW 13 31 1016.1 - 2.6 - - - - - - -
29/03:00am 11.7 W 14 23 1015.9 - 2.6 - - - - - - -
29/02:33am 10.6 W 15 25 1016.1 - 2.4 - - - - - - -
29/02:30am 10.5 W 16 25 1016.1 - 2.4 Rain - - - - - -
29/02:27am 10.7 WNW 15 25 1016.1 - 2.2 - - - - - - -
29/02:00am 11.6 NNW 10 18 1015.7 - 2.0 - - - - - - -
29/01:30am 11.5 NW 11 18 1015.5 - 2.0 - - - - - - -
29/01:00am 11.6 NE 8 15 1015.3 - 2.0 - - - - - - -
29/12:30am 11.7 NW 11 18 1015.2 - 2.0 - - - - - - -
29/12:00am 11.5 N 10 15 1015.1 - 2.0 - - - - - - -
 
Date/Time
CST
Temp
°C
Wind Pressure Rain since
9am
mm
Weather Cloud Vis
km
Sea
Height
m
Swell
Dir  Spd
kts
Gust
kts
hPa Trend Height
m
Period
s
Dir
28/11:30pm 11.6 W 13 21 1015.1 - 2.0 - - - - - - -
28/11:00pm 11.7 N 9 18 1015.1 - 2.0 - - - - - - -
28/10:30pm 11.2 W 12 16 1015.2 - 2.0 - - - - - - -
28/10:01pm 11.4 NNW 11 28 1015.0 - 2.0 - - - - - - -
28/10:00pm 11.5 NNW 10 23 1015.0 - 2.0 - - - - - - -
28/09:30pm 10.9 WNW 11 17 1014.8 - 2.0 - - - - - - -
28/09:04pm 10.6 NNW 11 24 1014.6 - 2.0 - - - - - - -
28/09:00pm 11.1 N 9 14 1014.4 - 1.8 - - - - - - -
28/08:30pm 11.4 ENE 10 13 1013.9 - 1.8 - - - - - - -
28/08:00pm 11.3 NE 10 19 1013.6 - 1.8 - - - - - - -
28/07:30pm 11.3 NNE 11 16 1013.0 - 1.8 - - - - - - -
28/07:00pm 11.5 ENE 11 19 1012.5 - 1.8 - - - - - - -
28/06:30pm 11.1 ENE 9 15 1012.3 - 1.8 - - - - - - -
28/06:00pm 10.8 ENE 11 17 1011.7 - 1.8 - - - - - - -
28/05:30pm 10.2 NE 10 19 1011.2 - 1.8 - - - - - - -
28/05:00pm 10.8 NNE 11 17 1010.6 - 1.8 - - - - - - -
28/04:30pm 10.4 NNE 13 20 1010.1 - 1.8 - - - - - - -
28/04:00pm 11.1 NE 12 19 1009.6 - 1.6 - - - - - - -
28/03:30pm 10.9 N 11 17 1009.2 - 1.6 - - - - - - -
28/03:00pm 11.5 N 11 18 1008.9 - 1.6 - - - - - - -
28/02:44pm 11.3 WNW 16 33 1008.8 - 1.6 - - - - - - -
28/02:30pm 11.3 NW 13 23 1008.5 - 1.6 - - - - - - -
28/02:00pm 10.9 NNE 11 19 1008.4 - 1.6 - - - - - - -
28/01:30pm 9.8 SSE 12 21 1008.3 - 1.6 - - - - - - -
28/01:09pm 9.9 WSW 17 33 1007.3 - 1.6 - - - - - - -
28/01:05pm 11.4 W 18 27 1007.7 - 1.6 - - - - - - -
28/01:00pm 11.3 W 21 27 1008.1 - 1.6 - - - - - - -
28/12:30pm 10.3 W 14 21 1008.2 - 1.6 - - - - - - -
28/12:08pm 10.0 W 19 29 1008.3 - 1.6 - - - - - - -
28/12:00pm 9.9 W 21 29 1008.2 - 1.4 - - - - - - -
28/11:30am 10.1 W 17 30 1008.1 - 1.0 Rain - - - - - -
28/11:27am 10.7 W 15 30 1007.8 - 0.8 - - - - - - -
28/11:00am 10.1 NE 9 14 1007.9 - 0.8 - - - - - - -
28/10:32am 12.1 W 17 27 1007.9 - 0.6 - - - - - - -
28/10:30am 11.9 W 18 27 1007.9 - 0.6 - - - - - - -
28/10:00am 11.6 W 20 29 1007.8 - 0.6 - - - - - - -
28/09:30am 11.3 W 17 24 1007.5 - 0.6 - - - - - - -
28/09:13am 11.0 W 20 26 1007.4 - 0.6 - - - - - - -
28/09:00am 9.7 NW 12 22 1007.1 - 0.6 - - - - - - -
28/08:39am 10.0 NNE 12 26 1007.0 - 0.4 - - - - - - -
28/08:30am 10.8 WNW 17 26 1006.7 - 16.4 Recent precip. - - - - - -
28/08:14am 10.7 W 17 29 1006.8 - 16.4 - - - - - - -
28/08:09am 10.0 WNW 11 22 1006.8 - 16.4 - - - - - - -
28/08:00am 7.8 NNW 5 8 1006.8 - 16.4 - - - - - - -
28/07:52am 7.7 NW 6 9 1006.9 - 16.4 - - - - - - -
28/07:30am 7.8 WNW 21 33 1007.4 - 15.6 - - - - - - -
28/07:07am 10.2 WNW 15 29 1006.4 - 11.0 - - - - - - -
28/07:00am 10.7 WNW 14 19 1006.5 - 10.8 - - - - - - -
28/06:52am 10.2 WNW 17 27 1006.5 - 10.8 - - - - - - -
28/06:46am 11.5 NW 15 27 1006.3 - 10.8 - - - - - - -
28/06:30am 11.1 NNE 10 18 1005.9 - 10.8 - - - - - - -
28/06:21am 11.3 W 17 27 1006.1 - 10.6 - - - - - - -
28/06:00am 12.2 W 18 24 1006.0 - 10.4 - - - - - - -
28/05:31am 12.2 W 19 29 1006.1 - 10.4 - - - - - - -
28/05:30am 12.3 W 19 28 1006.0 - 10.4 - - - - - - -
28/05:00am 12.3 W 22 28 1006.0 - 10.4 - - - - - - -
28/04:50am 12.2 W 15 25 1006.0 - 10.4 - - - - - - -
28/04:30am 12.5 W 17 23 1005.9 - 10.4 - - - - - - -
28/04:00am 11.9 W 18 25 1005.9 - 10.4 - - - - - - -
28/03:42am 11.8 W 15 25 1005.6 - 10.4 - - - - - - -
28/03:30am 11.9 W 17 26 1005.9 - 10.4 - - - - - - -
28/03:28am 11.4 WNW 15 26 1005.9 - 10.4 - - - - - - -
28/03:00am 11.3 W 18 25 1006.3 - 10.4 - - - - - - -
28/02:30am 11.7 W 19 34 1006.0 - 10.2 Recent precip. - - - - - -
28/02:05am 11.8 W 21 38 1005.9 - 10.0 - - - - - - -
28/02:02am 12.6 W 18 28 1005.9 - 10.0 - - - - - - -
28/02:00am 12.3 W 19 28 1005.9 - 10.0 - - - - - - -
28/01:30am 11.5 W 18 35 1005.9 - 10.0 - - - - - - -
28/01:06am 12.7 W 17 28 1006.1 - 8.6 - - - - - - -
28/01:00am 12.8 W 15 23 1006.0 - 8.6 - - - - - - -
28/12:30am 12.7 W 15 24 1006.3 - 8.6 - - - - - - -
28/12:00am 12.6 W 17 24 1006.7 - 8.6 - - - - - - -
 
Date/Time
CST
Temp
°C
Wind Pressure Rain since
9am
mm
Weather Cloud Vis
km
Sea
Height
m
Swell
Dir  Spd
kts
Gust
kts
hPa Trend Height
m
Period
s
Dir
27/11:30pm 12.0 W 14 22 1006.9 - 8.6 Recent precip. - - - - - -
27/11:00pm 11.3 W 15 24 1006.9 - 8.6 - - - - - - -
27/10:42pm 12.9 W 18 30 1006.6 - 8.4 - - - - - - -
27/10:30pm 12.7 W 19 24 1006.9 - 8.4 - - - - - - -
27/10:14pm 12.3 W 15 25 1006.6 - 8.4 - - - - - - -
27/10:00pm 12.2 W 21 29 1006.7 - 8.4 - - - - - - -
27/09:56pm 12.3 W 15 29 1006.7 - 8.4 - - - - - - -
27/09:30pm 11.6 WNW 13 22 1007.2 - 8.2 - - - - - - -
27/09:00pm 12.8 W 13 19 1007.2 - 7.0 - - - - - - -
27/08:30pm 12.5 W 11 16 1007.2 - 7.0 Recent precip. - - - - - -
27/08:00pm 12.3 W 14 20 1006.9 - 7.0 - - - - - - -
27/07:41pm 12.3 W 17 27 1006.8 - 6.8 - - - - - - -
27/07:30pm 12.6 W 21 28 1006.7 - 6.8 - - - - - - -
27/07:21pm 12.4 W 18 28 1006.5 - 6.8 - - - - - - -
27/07:00pm 11.6 NNW 13 19 1006.3 - 6.2 - - - - - - -
27/06:30pm 11.8 NNW 11 15 1006.2 - 6.2 - - - - - - -
27/06:00pm 12.1 NW 15 21 1006.4 - 6.2 - - - - - - -
27/05:30pm 11.3 NNW 16 26 1006.5 - 5.4 Rain - - - - - -
27/05:26pm 11.2 NNW 15 26 1006.3 - 5.4 - - - - - - -
27/05:00pm 11.4 NNW 16 22 1006.0 - 5.2 - - - - - - -
27/04:32pm 11.8 NW 20 33 1006.6 - 3.2 - - - - - - -
27/04:30pm 12.6 NW 18 33 1006.6 - 2.4 - - - - - - -
27/04:26pm 15.0 NW 13 28 1006.7 - 0.6 - - - - - - -
27/04:00pm 15.4 NNW 11 18 1006.0 - 0.2 - - - - - - -
27/03:30pm 16.3 NNW 13 19 1006.3 - 0.2 - - - - - - -
27/03:00pm 16.4 NNW 16 27 1006.3 - 0.2 - - - - - - -
27/02:59pm 16.4 NNW 15 25 1006.3 - 0.2 - - - - - - -
27/02:30pm 17.1 NNW 16 24 1006.4 - 0.2 - - - - - - -
27/02:04pm 17.6 NNW 16 26 1006.3 - 0.2 - - - - - - -
27/02:00pm 17.6 NNW 15 24 1006.4 - 0.2 - - - - - - -
27/01:30pm 16.6 NNW 15 25 1007.1 - 0.2 - - - - - - -
27/01:00pm 15.5 NNW 17 27 1007.9 - 0.2 - - - - - - -
27/12:39pm 17.2 NNW 15 26 1007.9 - 0.0 - - - - - - -
27/12:30pm 16.9 NNW 16 23 1008.2 - 0.0 - - - - - - -
27/12:00pm 17.4 NNW 16 27 1008.8 - 0.0 - - - - - - -
27/11:30am 16.2 NNW 16 27 1009.2 - 0.0 - - - - - - -
27/11:02am 16.7 N 16 26 1010.0 - 0.0 - - - - - - -
27/11:00am 16.8 N 17 22 1010.0 - 0.0 - - - - - - -
27/10:30am 17.0 N 16 23 1010.3 - 0.0 - - - - - - -
27/10:00am 16.8 N 15 21 1010.8 - 0.0 - - - - - - -
27/09:30am 15.9 NNW 13 21 1011.2 - 0.0 - - - - - - -
27/09:00am 14.6 N 15 21 1011.5 - 0.0 - - - - - - -
27/08:30am 14.4 N 15 25 1011.6 - 0.0 - - - - - - -
27/08:01am 14.4 NNW 15 25 1011.6 - 0.0 - - - - - - -
27/08:00am 14.3 N 16 25 1011.6 - 0.0 - - - - - - -
27/07:42am 14.1 NNW 15 25 1011.6 - 0.0 - - - - - - -
27/07:30am 13.8 NNW 15 22 1011.7 - 0.0 - - - - - - -
27/07:00am 13.9 N 15 21 1011.7 - 0.0 - - - - - - -
27/06:30am 13.7 N 14 23 1012.0 - 0.0 - - - - - - -
27/06:00am 14.1 N 15 22 1012.1 - 0.0 - - - - - - -
27/05:30am 13.4 NNW 14 21 1012.2 - 0.0 - - - - - - -
27/05:00am 13.1 NNW 14 21 1012.3 - 0.0 - - - - - - -
27/04:30am 12.8 N 15 20 1012.4 - 0.0 - - - - - - -
27/04:00am 12.8 N 15 21 1012.6 - 0.0 - - - - - - -
27/03:30am 12.7 N 14 21 1012.9 - 0.0 - - - - - - -
27/03:00am 12.5 N 15 21 1013.1 - 0.0 - - - - - - -
27/02:30am 12.3 N 15 21 1013.5 - 0.0 - - - - - - -
27/02:00am 12.0 N 15 25 1013.7 - 0.0 - - - - - - -
27/01:52am 12.0 N 15 25 1013.8 - 0.0 - - - - - - -
27/01:30am 11.7 N 16 23 1014.0 - 0.0 - - - - - - -
27/01:00am 11.5 N 14 18 1014.3 - 0.0 - - - - - - -
27/12:30am 11.2 N 13 19 1014.8 - 0.0 - - - - - - -
27/12:00am 11.3 N 13 19 1015.3 - 0.0 - - - - - - -
 
Date/Time
CST
Temp
°C
Wind Pressure Rain since
9am
mm
Weather Cloud Vis
km
Sea
Height
m
Swell
Dir  Spd
kts
Gust
kts
hPa Trend Height
m
Period
s
Dir
26/11:30pm 11.2 N 12 17 1015.3 - 0.0 - - - - - - -
26/11:00pm 10.9 N 11 16 1015.6 - 0.0 - - - - - - -
26/10:30pm 11.0 N 12 18 1016.0 - 0.0 - - - - - - -
26/10:00pm 11.0 N 12 16 1016.4 - 0.0 - - - - - - -
26/09:30pm 10.9 N 13 20 1016.6 - 0.0 - - - - - - -
26/09:00pm 10.4 N 12 17 1016.9 - 0.0 - - - - - - -
26/08:30pm 10.1 N 10 15 1017.1 - 0.0 - - - - - - -
26/08:00pm 10.5 N 9 14 1017.3 - 0.0 - - - - - - -
26/07:30pm 11.5 N 10 13 1017.5 - 0.0 - - - - - - -
26/07:00pm 11.2 NNE 10 14 1017.6 - 0.0 - - - - - - -
26/06:30pm 10.0 N 8 12 1017.8 - 0.0 - - - - - - -
26/06:00pm 10.2 N 9 11 1018.0 - 0.0 - - - - - - -
26/05:30pm 10.4 N 7 9 1018.3 - 0.0 - - - - - - -
26/05:00pm 11.0 N 7 9 1018.3 - 0.0 - - - - - - -
26/04:30pm 12.2 N 8 10 1018.4 - 0.0 - - - - - - -
26/04:00pm 13.3 N 7 11 1018.6 - 0.0 - - - - - - -
26/03:30pm 13.9 NNW 8 11 1018.7 - 0.0 - - - - - - -
26/03:00pm 14.8 NNW 7 10 1018.7 - 0.0 - - - - - - -
26/02:30pm 15.8 N 6 9 1018.8 - 0.0 - - - - - - -
26/02:00pm 15.1 NNW 8 12 1018.9 - 0.0 - - - - - - -
26/01:30pm 15.9 NNW 7 11 1019.3 - 0.0 - - - - - - -
26/01:00pm 14.7 NNW 5 9 1019.7 - 0.0 - - - - - - -
26/12:30pm 15.7 NW 8 12 1020.2 - 0.0 - - - - - - -
26/12:00pm 15.4 NNW 6 10 1020.7 - 0.0 - - - - - - -
26/11:30am 14.8 NW 8 12 1021.3 - 0.0 - - - - - - -
26/11:00am 14.6 NW 7 10 1021.7 - 0.0 - - - - - - -
26/10:30am 14.9 NNW 7 10 1021.9 - 0.0 - - - - - - -
26/10:00am 13.9 NW 5 7 1022.1 - 0.0 - - - - - - -
26/09:30am 13.6 NNW 6 8 1022.1 - 0.0 - - - - - - -
26/09:00am 13.5 NW 6 8 1022.2 - 0.0 - - - - - - -
26/08:30am 13.2 WNW 7 10 1022.2 - 1.2 - - - - - - -
26/08:00am 13.0 N 4 7 1022.0 - 1.2 - - - - - - -
26/07:30am 12.7 WNW 8 12 1021.9 - 1.2 - - - - - - -
26/07:00am 13.1 W 6 10 1021.7 - 1.2 - - - - - - -
26/06:30am 13.0 NW 6 12 1021.5 - 1.2 - - - - - - -
26/06:00am 12.9 NNE 5 8 1021.3 - 1.2 - - - - - - -
26/05:30am 12.9 NE 5 8 1021.1 - 1.2 - - - - - - -

Other Formats:

Comma delimited format used in spreadsheet applications
http://www.bom.gov.au/fwo/IDS60701/IDS60701.94826.axf

JavaScript Object Notation format (JSON) in row-major order
http://www.bom.gov.au/fwo/IDS60701/IDS60701.94826.json